Terminal Aerodrome Forecast
Issued by NWS

Home | Current Version | Previous Version | Text Only | Print | Product List | Glossary On
Versions: 1 2 3 4 5 6 7 8 9 10 11 12 13 14 15 16 17
097
FTUS41 KCLE 201739
TAFFDY
TAF
KFDY 201739Z 2018/2118 04006KT P6SM BKN020
      TEMPO 2019/2023 SCT020 BKN070
     FM202300 06008KT P6SM BKN070
     FM211700 09008KT P6SM OVC030=

USA.gov is the U.S. government's official web portal to all federal, state and local government web resources and services.